Time;durP1;ratioP1;P1;durP2;ratioP2;P2;SDS_P1;SDS_P2;PMS_P1;PMS_P2;Temp;Humidity;BMP_temperature;BMP_pressure;BME280_temperature;BME280_humidity;BME280_pressure;Samples;Min_cycle;Max_cycle;Signal;HPM_P1;HPM_P2
2023/04/29 00:01:58;;;;;;;81.88;49.65;;;10.00;99.90;;;;;;5075147;28;20051;-69
2023/04/29 00:04:27;;;;;;;76.60;48.60;;;10.00;99.90;;;;;;5081488;28;20036;-69
2023/04/29 00:06:53;;;;;;;74.30;51.80;;;10.00;99.90;;;;;;5082039;28;20048;-70
2023/04/29 00:09:20;;;;;;;83.07;51.78;;;9.90;99.90;;;;;;5079555;28;20074;-70
2023/04/29 00:11:46;;;;;;;91.28;53.70;;;9.90;99.90;;;;;;5077241;28;20098;-69
2023/04/29 00:14:12;;;;;;;95.88;58.60;;;9.90;99.90;;;;;;5083047;28;20051;-69
2023/04/29 00:16:38;;;;;;;81.57;52.63;;;9.90;99.90;;;;;;5077474;28;20077;-70
2023/04/29 00:19:04;;;;;;;89.03;54.90;;;9.90;99.90;;;;;;5087101;28;20040;-70
2023/04/29 00:21:30;;;;;;;95.32;59.05;;;9.90;99.90;;;;;;5087136;28;20040;-69
2023/04/29 00:23:56;;;;;;;108.00;58.33;;;9.90;99.90;;;;;;5089847;28;20054;-70
2023/04/29 00:26:22;;;;;;;100.30;59.30;;;9.90;99.90;;;;;;5082278;28;20032;-69
2023/04/29 00:28:49;;;;;;;101.00;62.47;;;9.90;99.90;;;;;;5080338;28;20052;-69
2023/04/29 00:31:14;;;;;;;107.45;62.63;;;9.90;99.90;;;;;;5082722;28;20048;-69
2023/04/29 00:33:40;;;;;;;103.05;57.50;;;9.80;99.90;;;;;;5086786;28;20043;-70
2023/04/29 00:36:07;;;;;;;94.85;57.40;;;9.80;99.90;;;;;;5081150;28;20049;-70
2023/04/29 00:38:33;;;;;;;89.78;57.30;;;9.80;99.90;;;;;;5080744;28;20090;-69
2023/04/29 00:40:59;;;;;;;95.97;57.03;;;9.80;99.90;;;;;;5085754;28;20817;-70
2023/04/29 00:43:24;;;;;;;86.82;55.30;;;9.80;99.90;;;;;;5077166;28;20097;-70
2023/04/29 00:45:50;;;;;;;90.35;53.13;;;9.80;99.90;;;;;;5080076;28;20036;-70
2023/04/29 00:48:16;;;;;;;88.43;52.03;;;9.80;99.90;;;;;;5087596;28;20036;-70
2023/04/29 00:50:42;;;;;;;78.82;52.50;;;9.80;99.90;;;;;;5084680;28;20032;-69
2023/04/29 00:53:11;;;;;;;80.20;50.92;;;9.70;99.90;;;;;;5081043;28;20063;-69
2023/04/29 00:55:38;;;;;;;77.13;50.08;;;9.70;99.90;;;;;;5086285;28;20142;-70
2023/04/29 00:58:03;;;;;;;81.43;50.63;;;9.70;99.90;;;;;;5079554;28;20504;-70
2023/04/29 01:00:29;;;;;;;89.32;49.78;;;9.70;99.90;;;;;;5082902;28;20040;-69
2023/04/29 01:02:56;;;;;;;79.28;51.58;;;9.70;99.90;;;;;;5080008;28;20067;-70
2023/04/29 01:05:23;;;;;;;76.93;51.35;;;9.70;99.90;;;;;;5076989;28;20040;-69
2023/04/29 01:08:10;;;;;;;76.60;49.63;;;9.70;99.90;;;;;;5069066;28;20055;-70
2023/04/29 01:11:06;;;;;;;80.47;47.53;;;9.60;99.90;;;;;;5076716;28;20061;-70
2023/04/29 01:13:56;;;;;;;73.30;45.75;;;9.60;99.90;;;;;;5073825;28;20306;-70
2023/04/29 01:16:36;;;;;;;81.63;46.90;;;9.50;99.90;;;;;;5079167;28;20401;-70
2023/04/29 01:19:16;;;;;;;83.38;48.08;;;9.50;99.90;;;;;;5082337;28;20101;-70
2023/04/29 01:21:49;;;;;;;68.53;44.65;;;9.50;99.90;;;;;;5073092;28;20080;-70
2023/04/29 01:24:15;;;;;;;76.03;45.78;;;9.50;99.90;;;;;;5086887;28;20043;-69
2023/04/29 01:27:06;;;;;;;74.82;45.00;;;9.50;99.90;;;;;;5069906;28;20451;-70
2023/04/29 01:29:41;;;;;;;81.50;42.53;;;9.50;99.90;;;;;;5077129;28;20036;-69
2023/04/29 01:32:17;;;;;;;74.32;41.45;;;9.50;99.90;;;;;;5084068;28;20081;-69
2023/04/29 01:35:10;;;;;;;62.13;42.30;;;9.40;99.90;;;;;;5077802;28;20058;-70
2023/04/29 01:37:55;;;;;;;77.20;41.97;;;9.40;99.90;;;;;;5085636;28;20054;-69
2023/04/29 01:40:55;;;;;;;71.97;41.92;;;9.40;99.90;;;;;;5086928;28;20047;-69
2023/04/29 01:43:23;;;;;;;72.95;44.70;;;9.40;99.90;;;;;;5105640;27;20048;-69
2023/04/29 01:45:52;;;;;;;68.30;39.88;;;9.40;99.90;;;;;;5075041;28;20040;-69
2023/04/29 01:48:18;;;;;;;69.05;43.40;;;9.40;99.90;;;;;;5081569;28;20040;-69
2023/04/29 01:50:44;;;;;;;74.32;42.85;;;9.40;99.90;;;;;;5077516;28;20094;-69
2023/04/29 01:53:10;;;;;;;85.40;42.85;;;9.40;99.90;;;;;;5085247;28;20044;-70
2023/04/29 01:55:36;;;;;;;74.78;44.10;;;9.40;99.90;;;;;;5079514;28;20040;-69
2023/04/29 01:58:01;;;;;;;64.90;42.95;;;9.40;99.90;;;;;;5078621;28;20047;-69
2023/04/29 02:00:27;;;;;;;66.10;42.40;;;9.30;99.90;;;;;;5069730;28;20043;-69
2023/04/29 02:02:53;;;;;;;79.25;39.70;;;9.30;99.90;;;;;;5082530;28;20581;-70
2023/04/29 02:05:20;;;;;;;59.67;38.22;;;9.30;99.90;;;;;;5083396;28;20059;-69
2023/04/29 02:07:46;;;;;;;58.30;40.63;;;9.30;99.90;;;;;;5077642;28;20115;-69
2023/04/29 02:10:12;;;;;;;79.50;44.65;;;9.30;99.90;;;;;;5084004;28;20048;-69
2023/04/29 02:12:38;;;;;;;67.40;39.83;;;9.30;99.90;;;;;;5075764;28;20042;-69
2023/04/29 02:15:05;;;;;;;66.30;40.78;;;9.30;99.90;;;;;;5079546;28;20048;-69
2023/04/29 02:17:33;;;;;;;63.80;41.80;;;9.30;99.90;;;;;;5081596;28;20097;-70
2023/04/29 02:19:58;;;;;;;71.00;41.88;;;9.30;99.90;;;;;;5079907;28;20524;-70
2023/04/29 02:22:24;;;;;;;63.55;37.95;;;9.30;99.90;;;;;;5081064;28;20036;-69
2023/04/29 02:24:50;;;;;;;69.40;39.15;;;9.30;99.90;;;;;;5085928;28;20047;-70
2023/04/29 02:27:16;;;;;;;61.30;37.90;;;9.30;99.90;;;;;;5075822;28;20081;-69
2023/04/29 02:29:42;;;;;;;55.88;39.63;;;9.30;99.90;;;;;;5085454;28;20463;-70
2023/04/29 02:32:08;;;;;;;64.18;36.85;;;9.30;99.90;;;;;;5082983;28;20170;-69
2023/04/29 02:34:33;;;;;;;63.25;37.35;;;9.30;99.90;;;;;;5078785;28;20126;-69
2023/04/29 02:36:59;;;;;;;56.60;36.50;;;9.30;99.90;;;;;;5081227;28;20706;-69
2023/04/29 02:39:26;;;;;;;61.33;39.28;;;9.30;99.90;;;;;;5082570;28;20043;-69
2023/04/29 02:41:54;;;;;;;62.63;37.40;;;9.30;99.90;;;;;;5075967;28;20490;-69
2023/04/29 02:44:23;;;;;;;;;;;9.30;99.90;;;;;;5078961;28;20075;-70
2023/04/29 02:46:49;;;;;;;72.78;39.85;;;9.30;99.90;;;;;;5085322;28;19924;-70
2023/04/29 02:49:14;;;;;;;77.97;39.70;;;9.20;99.90;;;;;;5074531;28;20033;-69
2023/04/29 02:51:41;;;;;;;68.28;38.83;;;9.20;99.90;;;;;;5080377;28;20051;-69
2023/04/29 02:54:07;;;;;;;62.80;39.80;;;9.20;99.90;;;;;;5088966;28;20081;-69
2023/04/29 02:56:32;;;;;;;60.38;38.70;;;9.20;99.90;;;;;;5075698;28;20472;-69
2023/04/29 02:58:58;;;;;;;58.88;36.92;;;9.20;99.90;;;;;;5076325;28;20154;-69
2023/04/29 03:01:23;;;;;;;62.92;39.80;;;9.20;99.90;;;;;;5081436;28;20029;-69
2023/04/29 03:03:49;;;;;;;50.38;34.60;;;9.20;99.90;;;;;;5084760;28;20485;-69
2023/04/29 03:06:15;;;;;;;69.28;41.30;;;9.20;99.90;;;;;;5083112;28;20891;-69
2023/04/29 03:08:41;;;;;;;64.80;37.20;;;9.20;99.90;;;;;;5086701;28;20032;-69
2023/04/29 03:11:07;;;;;;;58.00;37.05;;;9.20;99.90;;;;;;5080954;28;20876;-69
2023/04/29 03:13:36;;;;;;;68.97;40.53;;;9.20;99.90;;;;;;5077337;28;20058;-69
2023/04/29 03:16:02;;;;;;;66.15;39.00;;;9.20;99.90;;;;;;5116939;27;20056;-70
2023/04/29 03:18:28;;;;;;;77.10;41.10;;;9.20;99.90;;;;;;5088357;28;20059;-69
2023/04/29 03:20:54;;;;;;;62.72;38.80;;;9.20;99.90;;;;;;5074071;28;20056;-69
2023/04/29 03:23:21;;;;;;;59.08;37.15;;;9.20;99.90;;;;;;5076972;28;20068;-69
2023/04/29 03:25:47;;;;;;;51.28;33.28;;;9.10;99.90;;;;;;5083946;28;20048;-69
2023/04/29 03:28:13;;;;;;;59.00;36.38;;;9.10;99.90;;;;;;5083404;28;20071;-69
2023/04/29 03:30:39;;;;;;;62.45;35.75;;;9.10;99.90;;;;;;5080802;28;20052;-69
2023/04/29 03:33:05;;;;;;;57.90;36.03;;;9.10;99.90;;;;;;5089462;28;20044;-69
2023/04/29 03:35:32;;;;;;;56.15;33.85;;;9.10;99.90;;;;;;5095949;28;20044;-69
2023/04/29 03:37:58;;;;;;;52.25;33.38;;;9.10;99.90;;;;;;5075002;28;20044;-69
2023/04/29 03:40:24;;;;;;;57.90;37.38;;;9.10;99.90;;;;;;5081134;28;20040;-69
2023/04/29 03:42:49;;;;;;;62.40;36.15;;;9.00;99.90;;;;;;5079985;28;20040;-69
2023/04/29 03:45:16;;;;;;;57.30;35.78;;;9.00;99.90;;;;;;5085226;28;20126;-69
2023/04/29 03:47:42;;;;;;;54.05;34.13;;;9.00;99.90;;;;;;5084794;28;20484;-69
2023/04/29 03:50:08;;;;;;;61.90;34.58;;;9.00;99.90;;;;;;5099877;28;20040;-69
2023/04/29 03:52:36;;;;;;;53.97;33.85;;;9.00;99.90;;;;;;5080581;28;20052;-69
2023/04/29 03:55:03;;;;;;;63.72;34.53;;;9.00;99.90;;;;;;5076600;28;20659;-69
2023/04/29 03:57:28;;;;;;;55.10;34.53;;;9.00;99.90;;;;;;5085046;28;20047;-69
2023/04/29 03:59:54;;;;;;;45.45;30.42;;;9.00;99.90;;;;;;5081915;28;20044;-69
2023/04/29 04:02:20;;;;;;;50.08;30.23;;;8.90;99.90;;;;;;5074100;28;20048;-69
2023/04/29 04:04:45;;;;;;;59.22;30.02;;;8.90;99.90;;;;;;5070956;28;20062;-69
2023/04/29 04:07:11;;;;;;;59.13;31.65;;;8.90;99.90;;;;;;5075054;28;20045;-69
2023/04/29 04:09:37;;;;;;;47.78;29.67;;;8.90;99.90;;;;;;5079873;28;20052;-69
2023/04/29 04:12:03;;;;;;;48.33;29.70;;;8.90;99.90;;;;;;5078394;28;20872;-69
2023/04/29 04:14:29;;;;;;;49.28;30.17;;;8.90;99.90;;;;;;5079924;28;20040;-69
2023/04/29 04:16:55;;;;;;;50.63;32.03;;;8.90;99.90;;;;;;5081478;28;20048;-69
2023/04/29 04:19:20;;;;;;;48.97;30.13;;;8.90;99.90;;;;;;5082795;28;20044;-69
2023/04/29 04:21:46;;;;;;;59.80;31.73;;;8.90;99.90;;;;;;5076295;28;20041;-69
2023/04/29 04:24:12;;;;;;;55.17;29.75;;;8.90;99.90;;;;;;5077155;28;20188;-69
2023/04/29 04:26:41;;;;;;;56.70;32.55;;;8.80;99.90;;;;;;5087719;28;20830;-69
2023/04/29 04:29:06;;;;;;;52.90;32.20;;;8.90;99.90;;;;;;5077988;28;20052;-69
2023/04/29 04:31:33;;;;;;;57.22;34.72;;;8.80;99.90;;;;;;5087464;28;20394;-69
2023/04/29 04:33:59;;;;;;;51.03;30.27;;;8.90;99.90;;;;;;5081662;28;20060;-69
2023/04/29 04:36:24;;;;;;;52.85;31.65;;;8.80;99.90;;;;;;5078710;28;20036;-69
2023/04/29 04:38:50;;;;;;;48.78;28.08;;;8.90;99.90;;;;;;5079595;28;20047;-68
2023/04/29 04:41:16;;;;;;;47.67;30.33;;;8.80;99.90;;;;;;5071590;28;20055;-69
2023/04/29 04:43:42;;;;;;;46.47;30.02;;;8.90;99.90;;;;;;5081711;28;20482;-69
2023/04/29 04:46:15;;;;;;;44.83;28.38;;;8.90;99.90;;;;;;5070307;28;20064;-69
2023/04/29 04:48:42;;;;;;;46.33;28.05;;;8.90;99.90;;;;;;5080625;28;20052;-69
2023/04/29 04:51:12;;;;;;;43.20;25.58;;;8.80;99.90;;;;;;5082064;28;20040;-69
2023/04/29 04:53:38;;;;;;;38.95;25.42;;;8.80;99.90;;;;;;5044470;28;1066684;-69
2023/04/29 04:56:05;;;;;;;40.20;25.02;;;8.80;99.90;;;;;;5083411;28;20141;-69
2023/04/29 04:58:32;;;;;;;40.42;25.27;;;8.80;99.90;;;;;;5110240;27;20048;-69
2023/04/29 05:00:58;;;;;;;39.88;23.65;;;8.90;99.90;;;;;;5082942;28;20036;-69
2023/04/29 05:03:24;;;;;;;50.75;26.17;;;8.80;99.90;;;;;;5083939;28;20066;-69
2023/04/29 05:05:53;;;;;;;39.42;23.98;;;8.90;99.90;;;;;;5083252;28;20622;-69
2023/04/29 05:08:19;;;;;;;35.60;23.55;;;8.80;99.90;;;;;;5082925;28;20497;-69
2023/04/29 05:10:45;;;;;;;41.38;22.83;;;8.90;99.90;;;;;;5075562;28;20040;-69
2023/04/29 05:13:11;;;;;;;39.45;25.58;;;8.90;99.90;;;;;;5077006;28;20056;-69
2023/04/29 05:15:36;;;;;;;29.08;22.48;;;8.80;99.90;;;;;;5082097;28;20056;-69
2023/04/29 05:18:02;;;;;;;37.50;24.27;;;8.80;99.90;;;;;;5081723;28;20504;-69
2023/04/29 05:20:28;;;;;;;47.28;22.40;;;8.90;99.90;;;;;;5071335;28;20259;-69
2023/04/29 05:22:54;;;;;;;39.78;24.02;;;8.90;99.90;;;;;;5076790;28;20404;-69
2023/04/29 05:25:19;;;;;;;49.83;27.13;;;8.80;99.90;;;;;;5086471;28;20048;-69
2023/04/29 05:27:45;;;;;;;41.10;23.17;;;8.80;99.90;;;;;;5081657;28;20523;-69
2023/04/29 05:30:11;;;;;;;41.60;24.92;;;8.90;99.90;;;;;;5078660;28;20036;-69
2023/04/29 05:32:37;;;;;;;37.95;24.40;;;8.90;99.90;;;;;;5081152;28;20033;-69
2023/04/29 05:35:04;;;;;;;34.53;23.50;;;8.90;99.90;;;;;;5082551;28;20045;-69
2023/04/29 05:37:30;;;;;;;34.33;24.48;;;8.90;99.90;;;;;;5074224;28;21150;-69
2023/04/29 05:39:59;;;;;;;43.55;25.15;;;8.90;99.90;;;;;;5081608;28;20081;-69
2023/04/29 05:42:26;;;;;;;36.03;25.08;;;8.90;99.90;;;;;;5088479;28;20043;-69
2023/04/29 05:44:52;;;;;;;41.40;24.23;;;8.90;99.90;;;;;;5086030;28;20062;-69
2023/04/29 05:47:18;;;;;;;39.28;25.35;;;8.90;99.90;;;;;;5070855;28;20116;-69
2023/04/29 05:49:43;;;;;;;48.40;24.98;;;8.90;99.90;;;;;;5080997;28;20046;-70
2023/04/29 05:52:10;;;;;;;51.47;27.35;;;8.90;99.90;;;;;;5077484;28;20860;-69
2023/04/29 05:54:36;;;;;;;41.58;26.55;;;8.90;99.90;;;;;;5086691;28;20051;-69
2023/04/29 05:57:02;;;;;;;44.55;26.70;;;8.90;99.90;;;;;;5083831;28;20046;-69
2023/04/29 05:59:31;;;;;;;42.35;27.30;;;9.00;99.90;;;;;;5076136;28;20044;-69
2023/04/29 06:01:59;;;;;;;40.78;29.10;;;9.00;99.90;;;;;;5081853;28;20045;-69
2023/04/29 06:04:25;;;;;;;40.13;26.73;;;9.00;99.90;;;;;;5080749;28;20041;-70
2023/04/29 06:06:52;;;;;;;51.85;30.42;;;9.00;99.90;;;;;;5079856;28;20407;-69
2023/04/29 06:09:24;;;;;;;61.25;31.02;;;9.00;99.90;;;;;;5084778;28;20824;-69
2023/04/29 06:11:50;;;;;;;40.47;27.85;;;9.10;99.90;;;;;;5082479;28;20123;-69
2023/04/29 06:14:16;;;;;;;49.65;28.13;;;9.10;99.90;;;;;;5072785;28;20040;-69
2023/04/29 06:16:43;;;;;;;43.40;27.48;;;9.10;99.90;;;;;;5076572;28;20397;-70
2023/04/29 06:19:09;;;;;;;42.55;30.75;;;9.10;99.90;;;;;;5079587;28;20056;-69
2023/04/29 06:21:34;;;;;;;46.90;29.33;;;9.10;99.90;;;;;;5084923;28;20052;-69
2023/04/29 06:24:00;;;;;;;54.40;30.25;;;9.20;99.90;;;;;;5075276;28;20047;-69
2023/04/29 06:26:26;;;;;;;44.63;27.88;;;9.20;99.90;;;;;;5084239;28;20048;-69
2023/04/29 06:28:53;;;;;;;38.70;26.95;;;9.20;99.90;;;;;;5081929;28;20040;-70
2023/04/29 06:31:18;;;;;;;42.60;26.75;;;9.20;99.90;;;;;;5073916;28;20048;-69
2023/04/29 06:33:45;;;;;;;42.50;26.63;;;9.20;99.90;;;;;;5071338;28;20044;-70
2023/04/29 06:36:11;;;;;;;47.40;29.65;;;9.30;99.90;;;;;;5071590;28;20048;-69
2023/04/29 06:38:37;;;;;;;48.35;29.50;;;9.30;99.90;;;;;;5096147;28;20052;-69
2023/04/29 06:41:03;;;;;;;49.08;27.55;;;9.40;99.90;;;;;;5083660;28;20056;-69
2023/04/29 06:43:29;;;;;;;39.50;26.05;;;9.50;99.90;;;;;;5079327;28;20093;-69
2023/04/29 06:45:55;;;;;;;46.13;25.85;;;9.50;99.90;;;;;;5086477;28;20085;-69
2023/04/29 06:48:21;;;;;;;36.45;24.55;;;9.50;99.90;;;;;;5076036;28;20036;-69
2023/04/29 06:50:52;;;;;;;35.20;26.58;;;9.60;99.90;;;;;;5082975;28;20412;-69
2023/04/29 06:53:18;;;;;;;38.45;24.23;;;9.70;99.90;;;;;;5081705;28;20068;-69
2023/04/29 06:55:45;;;;;;;35.20;23.40;;;9.70;99.90;;;;;;5077733;28;20508;-69
2023/04/29 06:58:12;;;;;;;40.85;25.85;;;9.80;99.90;;;;;;5079166;28;20040;-69
2023/04/29 07:00:38;;;;;;;40.78;23.88;;;9.90;99.90;;;;;;5082756;28;20378;-69
2023/04/29 07:03:03;;;;;;;37.60;23.75;;;10.00;99.90;;;;;;5079539;28;20040;-69
2023/04/29 07:05:29;;;;;;;38.03;22.23;;;10.20;99.90;;;;;;5089961;28;20036;-69
2023/04/29 07:07:55;;;;;;;44.13;25.15;;;10.20;99.90;;;;;;5076418;28;20056;-69
2023/04/29 07:10:21;;;;;;;31.25;23.38;;;10.40;99.90;;;;;;5087276;28;20036;-70
2023/04/29 07:12:47;;;;;;;35.03;22.33;;;10.50;99.90;;;;;;5085842;28;20048;-69
2023/04/29 07:15:12;;;;;;;38.42;21.80;;;10.70;99.90;;;;;;5085798;28;20075;-69
2023/04/29 07:17:38;;;;;;;33.58;22.45;;;10.90;99.90;;;;;;5085472;28;20062;-69
2023/04/29 07:20:05;;;;;;;28.35;20.10;;;11.20;99.90;;;;;;5113895;27;20041;-69
2023/04/29 07:22:31;;;;;;;27.58;20.13;;;11.50;99.90;;;;;;5069979;28;20615;-70
2023/04/29 07:24:57;;;;;;;29.00;20.42;;;11.90;99.90;;;;;;5075895;28;20119;-70
2023/04/29 07:27:23;;;;;;;36.50;18.23;;;12.10;99.90;;;;;;5073710;28;20583;-70
2023/04/29 07:29:49;;;;;;;32.92;19.05;;;12.40;99.90;;;;;;5078613;28;20044;-70
2023/04/29 07:32:15;;;;;;;27.35;18.27;;;12.60;99.90;;;;;;5109872;27;20052;-69
2023/04/29 07:34:41;;;;;;;24.20;16.35;;;12.70;99.90;;;;;;5080163;28;20048;-70
2023/04/29 07:37:06;;;;;;;23.95;18.08;;;12.80;99.90;;;;;;5082234;28;20055;-70
2023/04/29 07:39:34;;;;;;;24.60;16.92;;;13.00;99.90;;;;;;5094970;28;20481;-70
2023/04/29 07:42:00;;;;;;;26.92;15.30;;;13.20;99.90;;;;;;5074975;28;20052;-69
2023/04/29 07:44:25;;;;;;;26.58;17.17;;;13.30;99.90;;;;;;5071101;28;20043;-69
2023/04/29 07:46:54;;;;;;;25.02;16.13;;;13.60;99.90;;;;;;5082062;28;20048;-69
2023/04/29 07:49:20;;;;;;;17.90;14.00;;;13.70;99.90;;;;;;5078303;28;20052;-70
2023/04/29 07:51:46;;;;;;;22.50;16.73;;;13.90;99.90;;;;;;5084908;28;20460;-70
2023/04/29 07:54:13;;;;;;;25.05;16.10;;;13.90;99.90;;;;;;5088643;28;20091;-69
2023/04/29 07:56:38;;;;;;;21.80;16.13;;;14.10;99.90;;;;;;5087644;28;20138;-70
2023/04/29 07:59:04;;;;;;;22.90;14.45;;;14.20;99.90;;;;;;5081611;28;20069;-70
2023/04/29 08:01:29;;;;;;;20.98;16.73;;;14.40;99.90;;;;;;5085360;28;20101;-69
2023/04/29 08:03:55;;;;;;;21.65;15.27;;;14.50;99.90;;;;;;5085112;28;20497;-69
2023/04/29 08:06:21;;;;;;;18.75;13.85;;;14.70;99.90;;;;;;5083849;28;20032;-69
2023/04/29 08:08:47;;;;;;;23.02;13.98;;;14.90;99.90;;;;;;5084045;28;20032;-70
2023/04/29 08:11:20;;;;;;;19.95;14.65;;;14.80;99.90;;;;;;5090456;28;20047;-69
2023/04/29 08:13:46;;;;;;;23.75;13.52;;;14.70;99.90;;;;;;5082469;28;20040;-69
2023/04/29 08:16:12;;;;;;;21.65;15.63;;;14.80;99.90;;;;;;5078748;28;20562;-69
2023/04/29 08:18:38;;;;;;;19.27;13.77;;;14.90;99.90;;;;;;5080517;28;20040;-69
2023/04/29 08:21:05;;;;;;;16.05;12.88;;;15.10;99.90;;;;;;5073640;28;20070;-68
2023/04/29 08:23:31;;;;;;;30.13;15.35;;;15.30;99.90;;;;;;5078625;28;20045;-68
2023/04/29 08:25:57;;;;;;;19.40;13.00;;;15.40;99.90;;;;;;5078907;28;20053;-68
2023/04/29 08:28:23;;;;;;;15.90;12.68;;;15.30;99.90;;;;;;5079809;28;20039;-69
2023/04/29 08:30:49;;;;;;;27.65;15.15;;;15.20;99.90;;;;;;5086998;28;20043;-69
2023/04/29 08:33:15;;;;;;;26.38;13.90;;;15.20;99.90;;;;;;5079716;28;20039;-69
2023/04/29 08:35:41;;;;;;;22.05;13.98;;;15.00;99.90;;;;;;5074906;28;20052;-69
2023/04/29 08:38:08;;;;;;;21.00;14.65;;;15.10;99.90;;;;;;5072895;28;20051;-69
2023/04/29 08:40:45;;;;;;;18.65;14.88;;;15.30;99.90;;;;;;5078974;28;20120;-69
2023/04/29 08:43:14;;;;;;;18.47;14.47;;;15.40;99.90;;;;;;5083874;28;20874;-69
2023/04/29 08:45:42;;;;;;;26.45;12.95;;;15.60;99.90;;;;;;5088800;28;20079;-69
2023/04/29 08:48:08;;;;;;;24.25;15.88;;;15.70;99.90;;;;;;5081669;28;20051;-69
2023/04/29 08:50:39;;;;;;;24.80;15.07;;;15.90;99.90;;;;;;5077520;28;20904;-70
2023/04/29 08:53:09;;;;;;;28.63;16.52;;;15.70;99.90;;;;;;5085706;28;20048;-69
2023/04/29 08:55:36;;;;;;;17.13;14.07;;;15.30;99.90;;;;;;5086389;28;20044;-70
2023/04/29 08:58:02;;;;;;;19.27;14.35;;;15.50;99.90;;;;;;5087007;28;20074;-70
2023/04/29 09:00:31;;;;;;;15.55;12.85;;;15.70;99.90;;;;;;5079275;28;20131;-70
2023/04/29 09:02:58;;;;;;;17.42;13.55;;;16.00;99.90;;;;;;5085766;28;20097;-72
2023/04/29 09:05:25;;;;;;;18.37;14.03;;;16.10;99.90;;;;;;5078503;28;20044;-72
2023/04/29 09:07:52;;;;;;;45.00;16.53;;;16.00;99.90;;;;;;5076683;28;20507;-72
2023/04/29 09:10:18;;;;;;;23.23;13.57;;;16.10;99.90;;;;;;5078991;28;20040;-70
2023/04/29 09:12:45;;;;;;;18.85;14.10;;;16.30;99.90;;;;;;5084342;28;20043;-71
2023/04/29 09:15:10;;;;;;;17.25;12.25;;;16.60;99.90;;;;;;5085099;28;20165;-70
2023/04/29 09:17:47;;;;;;;22.95;13.57;;;16.70;99.90;;;;;;5078814;28;20050;-71
2023/04/29 09:20:21;;;;;;;18.20;13.27;;;16.80;99.90;;;;;;5080623;28;20155;-70
2023/04/29 09:22:51;;;;;;;18.17;13.38;;;17.00;99.90;;;;;;5087619;28;20041;-70
2023/04/29 09:25:17;;;;;;;16.05;12.80;;;17.20;99.90;;;;;;5079926;28;20421;-70
2023/04/29 09:27:44;;;;;;;22.05;14.60;;;17.30;99.90;;;;;;5086048;28;20039;-70
2023/04/29 09:30:15;;;;;;;18.70;13.25;;;17.40;99.90;;;;;;5079202;28;20442;-70
2023/04/29 09:32:41;;;;;;;22.20;13.02;;;17.60;99.90;;;;;;5079338;28;20353;-70
2023/04/29 09:35:26;;;;;;;21.77;13.57;;;17.60;99.90;;;;;;5080330;28;20105;-70
2023/04/29 09:38:06;;;;;;;16.77;11.65;;;17.70;99.90;;;;;;5074210;28;20040;-70
2023/04/29 09:40:33;;;;;;;27.58;13.00;;;17.70;99.90;;;;;;5076020;28;20554;-69
2023/04/29 09:42:59;;;;;;;20.48;14.20;;;17.30;97.90;;;;;;5077157;28;20451;-70
2023/04/29 09:45:32;;;;;;;15.98;12.30;;;17.40;99.90;;;;;;5086835;28;20416;-68
2023/04/29 09:48:02;;;;;;;16.23;13.60;;;17.60;99.90;;;;;;5080903;28;20045;-68
2023/04/29 09:50:28;;;;;;;19.27;13.90;;;17.70;99.90;;;;;;5081170;28;20050;-68
2023/04/29 09:52:54;;;;;;;22.20;14.15;;;17.90;99.90;;;;;;5072408;28;20052;-68
2023/04/29 09:55:20;;;;;;;20.23;13.57;;;17.70;99.90;;;;;;5109780;27;20444;-68
2023/04/29 09:57:46;;;;;;;17.67;12.73;;;17.70;99.90;;;;;;5076201;28;20071;-68
2023/04/29 10:00:15;;;;;;;18.92;12.45;;;17.70;99.90;;;;;;5077691;28;20119;-68
2023/04/29 10:02:42;;;;;;;22.10;12.30;;;17.80;99.90;;;;;;5076417;28;20068;-67
2023/04/29 10:05:09;;;;;;;15.43;12.23;;;17.90;99.90;;;;;;5085715;28;20091;-68
2023/04/29 10:07:38;;;;;;;16.42;13.88;;;18.10;99.90;;;;;;5085910;28;20048;-68
2023/04/29 10:10:07;;;;;;;17.30;12.50;;;18.10;97.40;;;;;;5088339;28;20044;-67
2023/04/29 10:12:34;;;;;;;16.20;13.02;;;18.20;98.50;;;;;;5073293;28;20484;-68
2023/04/29 10:15:14;;;;;;;23.33;15.05;;;18.20;98.40;;;;;;5079840;28;20058;-67
2023/04/29 10:17:45;;;;;;;16.63;12.75;;;18.00;97.00;;;;;;5071708;28;20048;-67
2023/04/29 10:20:15;;;;;;;19.48;12.98;;;18.00;96.00;;;;;;5082387;28;20424;-67
2023/04/29 10:22:47;;;;;;;25.38;13.73;;;18.00;96.30;;;;;;5083545;28;20044;-67
2023/04/29 10:25:25;;;;;;;16.10;11.05;;;18.00;96.90;;;;;;5071480;28;20036;-67
2023/04/29 10:27:54;;;;;;;15.50;10.88;;;18.10;95.50;;;;;;5076269;28;20044;-67
2023/04/29 10:30:20;;;;;;;16.95;12.10;;;17.90;94.50;;;;;;5079292;28;20105;-67
2023/04/29 10:32:48;;;;;;;24.67;13.50;;;17.80;93.80;;;;;;5074389;28;20076;-67
2023/04/29 10:35:15;;;;;;;17.27;11.98;;;17.80;94.60;;;;;;5083507;28;20048;-69
2023/04/29 10:37:43;;;;;;;19.98;11.73;;;17.80;95.80;;;;;;5085822;28;20044;-67
2023/04/29 10:40:21;;;;;;;19.77;10.80;;;17.80;95.60;;;;;;5086729;28;20052;-67
2023/04/29 10:42:49;;;;;;;19.60;12.77;;;17.90;95.30;;;;;;5073292;28;20048;-69
2023/04/29 10:45:20;;;;;;;;;;;18.10;94.70;;;;;;5080453;28;20812;-67
2023/04/29 10:48:01;;;;;;;15.68;12.38;;;18.20;94.50;;;;;;5079069;28;20023;-68
2023/04/29 10:50:28;;;;;;;16.73;11.77;;;18.30;91.10;;;;;;5077363;28;20122;-68
2023/04/29 10:52:55;;;;;;;17.80;12.05;;;18.40;93.40;;;;;;5076654;28;20048;-68
2023/04/29 10:55:23;;;;;;;19.10;14.38;;;18.30;91.20;;;;;;5078335;28;20060;-68
2023/04/29 10:57:52;;;;;;;17.55;13.13;;;18.40;92.00;;;;;;5076149;28;20527;-67
2023/04/29 11:00:22;;;;;;;27.65;12.48;;;18.10;87.90;;;;;;5076770;28;20159;-67
2023/04/29 11:02:48;;;;;;;16.17;12.75;;;17.80;88.40;;;;;;5072867;28;20131;-67
2023/04/29 11:05:14;;;;;;;14.70;12.07;;;17.60;85.00;;;;;;5077121;28;20281;-67
2023/04/29 11:07:40;;;;;;;14.45;10.13;;;17.60;85.90;;;;;;5077356;28;20049;-67
2023/04/29 11:10:06;;;;;;;16.48;11.23;;;18.00;88.80;;;;;;5078192;28;20037;-68
2023/04/29 11:12:33;;;;;;;16.83;12.52;;;18.10;87.00;;;;;;5077942;28;20063;-69
2023/04/29 11:15:02;;;;;;;20.92;10.85;;;17.70;79.30;;;;;;5078590;28;20094;-68
2023/04/29 11:17:35;;;;;;;20.50;9.38;;;17.70;85.10;;;;;;5090131;28;20043;-68
2023/04/29 11:20:01;;;;;;;16.80;11.30;;;17.90;86.70;;;;;;5080468;28;20052;-69
2023/04/29 11:22:32;;;;;;;26.33;11.43;;;17.80;83.60;;;;;;5082787;28;20039;-68
2023/04/29 11:25:09;;;;;;;14.23;10.57;;;18.10;86.70;;;;;;5077329;28;20473;-68
2023/04/29 11:27:37;;;;;;;16.48;11.20;;;18.40;85.40;;;;;;5118024;27;20598;-68
2023/04/29 11:30:06;;;;;;;13.88;8.68;;;18.20;78.40;;;;;;5078973;28;20040;-68
2023/04/29 11:32:41;;;;;;;13.13;9.63;;;18.20;81.60;;;;;;5086316;28;20051;-68
2023/04/29 11:35:18;;;;;;;16.65;10.85;;;18.40;81.10;;;;;;5085609;28;20397;-68
2023/04/29 11:37:45;;;;;;;11.30;10.07;;;18.60;81.60;;;;;;5083446;28;20055;-68
2023/04/29 11:40:12;;;;;;;15.82;10.35;;;18.40;77.80;;;;;;5084958;28;20098;-68
2023/04/29 11:42:44;;;;;;;23.13;11.23;;;18.60;81.40;;;;;;5081612;28;20037;-68
2023/04/29 11:45:11;;;;;;;16.17;9.85;;;18.90;81.50;;;;;;5086078;28;20044;-68
2023/04/29 11:47:41;;;;;;;15.20;11.48;;;19.00;80.50;;;;;;5083418;28;20083;-69
2023/04/29 11:50:09;;;;;;;9.70;8.63;;;19.20;77.80;;;;;;5079824;28;20092;-69
2023/04/29 11:52:36;;;;;;;12.43;10.10;;;19.30;78.60;;;;;;5084487;28;20123;-69
2023/04/29 11:55:08;;;;;;;25.83;11.68;;;19.30;78.50;;;;;;5087404;28;20048;-69
2023/04/29 11:57:34;;;;;;;18.95;10.00;;;18.90;74.10;;;;;;5087468;28;20047;-68
2023/04/29 12:00:00;;;;;;;13.68;9.75;;;18.50;76.00;;;;;;5085543;28;20040;-69
2023/04/29 12:02:32;;;;;;;16.58;9.93;;;18.50;80.50;;;;;;5077324;28;20048;-69
2023/04/29 12:05:08;;;;;;;14.18;9.80;;;18.80;79.90;;;;;;5073392;28;20493;-69
2023/04/29 12:07:35;;;;;;;11.63;9.75;;;19.00;79.20;;;;;;5089273;28;20119;-69
2023/04/29 12:10:00;;;;;;;12.20;8.95;;;19.00;78.00;;;;;;5080629;28;20067;-69
2023/04/29 12:12:27;;;;;;;13.23;9.45;;;19.20;78.70;;;;;;5083756;28;20041;-69
2023/04/29 12:14:53;;;;;;;13.23;9.50;;;19.30;76.20;;;;;;5080617;28;20044;-69
2023/04/29 12:17:19;;;;;;;11.82;7.95;;;19.40;76.00;;;;;;5084312;28;20044;-68
2023/04/29 12:19:45;;;;;;;10.07;8.32;;;19.50;75.80;;;;;;5080089;28;20080;-69
2023/04/29 12:22:11;;;;;;;14.95;8.43;;;19.70;74.10;;;;;;5088240;28;20044;-69
2023/04/29 12:24:38;;;;;;;9.98;7.57;;;19.70;73.50;;;;;;5087415;28;20035;-69
2023/04/29 12:27:07;;;;;;;15.43;7.15;;;19.70;72.10;;;;;;5090072;28;20079;-69
2023/04/29 12:29:39;;;;;;;9.57;5.68;;;19.70;70.30;;;;;;5074925;28;20108;-69
2023/04/29 12:32:07;;;;;;;7.70;6.03;;;19.60;69.00;;;;;;5077672;28;20731;-69
2023/04/29 12:34:33;;;;;;;7.22;5.38;;;19.80;69.50;;;;;;5074116;28;20070;-69
2023/04/29 12:36:59;;;;;;;6.28;5.22;;;19.80;68.00;;;;;;5085570;28;20039;-69